Time;durP1;ratioP1;P1;durP2;ratioP2;P2;SDS_P1;SDS_P2;PMS_P1;PMS_P2;Temp;Humidity;BMP_temperature;BMP_pressure;BME280_temperature;BME280_humidity;BME280_pressure;Samples;Min_cycle;Max_cycle;Signal;HPM_P1;HPM_P2
2021/09/11 00:01:41;;;;;;;45.27;39.50;;;;;;;;;;4960350;28;20265;-78
2021/09/11 00:04:06;;;;;;;51.47;42.80;;;;;;;;;;4960083;28;20190;-78
2021/09/11 00:06:32;;;;;;;46.67;41.57;;;;;;;;;;4961847;28;20198;-77
2021/09/11 00:08:57;;;;;;;52.33;42.50;;;;;;;;;;4960827;28;20203;-78
2021/09/11 00:11:22;;;;;;;43.33;38.47;;;;;;;;;;4958534;28;20187;-77
2021/09/11 00:13:48;;;;;;;43.27;37.13;;;;;;;;;;4960422;28;20674;-77
2021/09/11 00:16:13;;;;;;;49.63;41.13;;;;;;;;;;4959740;28;20175;-78
2021/09/11 00:18:38;;;;;;;42.47;37.97;;;;;;;;;;4960023;28;20213;-78
2021/09/11 00:21:03;;;;;;;46.20;40.33;;;;;;;;;;4957487;28;20324;-78
2021/09/11 00:23:29;;;;;;;55.33;43.50;;;;;;;;;;4960571;28;20246;-79
2021/09/11 00:25:56;;;;;;;46.30;39.37;;;;;;;;;;4960086;28;20270;-78
2021/09/11 00:28:21;;;;;;;44.23;39.40;;;;;;;;;;4958904;28;20206;-77
2021/09/11 00:30:47;;;;;;;48.37;41.70;;;;;;;;;;4960002;28;20426;-78
2021/09/11 00:33:12;;;;;;;46.67;38.67;;;;;;;;;;4961422;28;20212;-78
2021/09/11 00:35:37;;;;;;;42.63;36.40;;;;;;;;;;4962968;28;20742;-79
2021/09/11 00:38:02;;;;;;;44.20;37.40;;;;;;;;;;4959827;28;20828;-79
2021/09/11 00:40:28;;;;;;;46.47;38.50;;;;;;;;;;4961452;28;20195;-79
2021/09/11 00:42:53;;;;;;;44.63;37.40;;;;;;;;;;4961365;28;20646;-79
2021/09/11 00:45:20;;;;;;;45.27;40.33;;;;;;;;;;4959629;28;20198;-79
2021/09/11 00:47:45;;;;;;;48.13;39.87;;;;;;;;;;4960292;28;20213;-79
2021/09/11 00:50:11;;;;;;;46.93;37.63;;;;;;;;;;4960621;28;20983;-79
2021/09/11 00:52:38;;;;;;;44.30;37.80;;;;;;;;;;4959276;28;20179;-79
2021/09/11 00:55:04;;;;;;;39.17;34.97;;;;;;;;;;4959336;28;20183;-79
2021/09/11 00:57:32;;;;;;;49.50;39.03;;;;;;;;;;4959403;28;20462;-79
2021/09/11 00:59:57;;;;;;;44.20;39.43;;;;;;;;;;4959912;28;20186;-80
2021/09/11 01:02:22;;;;;;;41.67;37.33;;;;;;;;;;4958424;28;20434;-79
2021/09/11 01:04:48;;;;;;;43.73;36.33;;;;;;;;;;4959427;28;20864;-79
2021/09/11 01:07:13;;;;;;;38.47;34.07;;;;;;;;;;4958397;28;20226;-79
2021/09/11 01:09:38;;;;;;;44.33;36.57;;;;;;;;;;4959729;28;20191;-79
2021/09/11 01:12:05;;;;;;;43.53;38.27;;;;;;;;;;4960411;28;20281;-79
2021/09/11 01:14:30;;;;;;;42.73;35.10;;;;;;;;;;4961244;28;20194;-79
2021/09/11 01:16:55;;;;;;;39.17;34.77;;;;;;;;;;4960385;28;20504;-78
2021/09/11 01:19:21;;;;;;;45.70;36.63;;;;;;;;;;4959985;28;20190;-79
2021/09/11 01:21:46;;;;;;;40.27;35.90;;;;;;;;;;4959113;28;20178;-79
2021/09/11 01:24:11;;;;;;;41.93;35.70;;;;;;;;;;4959582;28;20175;-78
2021/09/11 01:26:36;;;;;;;43.40;37.13;;;;;;;;;;4959633;28;20213;-78
2021/09/11 01:29:02;;;;;;;42.60;36.00;;;;;;;;;;4958112;28;20257;-79
2021/09/11 01:31:33;;;;;;;45.17;37.17;;;;;;;;;;4960108;28;20544;-79
2021/09/11 01:33:59;;;;;;;49.70;38.53;;;;;;;;;;4958431;28;20277;-79
2021/09/11 01:36:24;;;;;;;47.07;37.50;;;;;;;;;;4958243;28;20955;-78
2021/09/11 01:38:49;;;;;;;44.40;38.73;;;;;;;;;;4957373;28;20208;-78
2021/09/11 01:41:15;;;;;;;45.20;37.43;;;;;;;;;;4959515;28;20190;-78
2021/09/11 01:43:40;;;;;;;41.20;36.27;;;;;;;;;;4958437;28;20188;-78
2021/09/11 01:46:05;;;;;;;44.63;36.47;;;;;;;;;;4956995;28;20218;-79
2021/09/11 01:48:31;;;;;;;44.13;37.93;;;;;;;;;;4957874;28;20277;-79
2021/09/11 01:50:56;;;;;;;45.23;37.90;;;;;;;;;;4957350;28;20179;-78
2021/09/11 01:53:21;;;;;;;46.27;36.90;;;;;;;;;;4960215;28;20233;-79
2021/09/11 01:55:47;;;;;;;37.60;32.83;;;;;;;;;;4959155;28;20206;-78
2021/09/11 01:58:12;;;;;;;39.27;34.53;;;;;;;;;;4959393;28;20664;-78
2021/09/11 02:00:39;;;;;;;38.67;34.43;;;;;;;;;;4960050;28;20234;-78
2021/09/11 02:03:04;;;;;;;46.70;36.30;;;;;;;;;;4958203;28;20186;-79
2021/09/11 02:05:29;;;;;;;38.93;33.47;;;;;;;;;;4959428;28;20445;-79
2021/09/11 02:07:54;;;;;;;40.90;34.47;;;;;;;;;;4961233;28;20202;-79
2021/09/11 02:10:20;;;;;;;42.10;34.47;;;;;;;;;;4958235;28;20179;-78
2021/09/11 02:12:45;;;;;;;42.70;36.00;;;;;;;;;;4959874;28;20189;-78
2021/09/11 02:15:11;;;;;;;41.10;33.83;;;;;;;;;;4956705;28;20214;-79
2021/09/11 02:17:39;;;;;;;35.93;32.00;;;;;;;;;;4955738;28;20210;-79
2021/09/11 02:20:05;;;;;;;40.93;33.63;;;;;;;;;;4958444;28;20191;-79
2021/09/11 02:22:30;;;;;;;40.13;31.87;;;;;;;;;;4958671;28;20951;-79
2021/09/11 02:24:55;;;;;;;39.80;33.23;;;;;;;;;;4959883;28;20174;-79
2021/09/11 02:27:21;;;;;;;35.20;30.97;;;;;;;;;;4957141;28;20246;-79
2021/09/11 02:29:46;;;;;;;32.40;28.83;;;;;;;;;;4955494;28;20230;-79
2021/09/11 02:32:11;;;;;;;38.43;30.07;;;;;;;;;;4957741;28;20761;-79
2021/09/11 02:34:37;;;;;;;31.83;26.73;;;;;;;;;;4958137;28;20265;-78
2021/09/11 02:37:02;;;;;;;32.10;28.13;;;;;;;;;;4959436;28;20193;-78
2021/09/11 02:39:27;;;;;;;29.73;26.63;;;;;;;;;;4959502;28;20277;-79
2021/09/11 02:41:52;;;;;;;30.73;27.43;;;;;;;;;;4957998;28;20265;-78
2021/09/11 02:44:18;;;;;;;30.37;27.00;;;;;;;;;;4955211;28;20585;-78
2021/09/11 02:46:43;;;;;;;29.07;24.10;;;;;;;;;;4955663;28;20214;-78
2021/09/11 02:49:08;;;;;;;32.10;27.90;;;;;;;;;;4954641;28;20250;-78
2021/09/11 02:51:34;;;;;;;28.97;25.87;;;;;;;;;;4965645;28;20242;-78
2021/09/11 02:53:59;;;;;;;30.47;27.27;;;;;;;;;;4956900;28;20185;-78
2021/09/11 02:56:25;;;;;;;28.07;25.07;;;;;;;;;;4960087;28;20193;-78
2021/09/11 02:58:50;;;;;;;32.70;28.57;;;;;;;;;;4955855;28;20540;-79
2021/09/11 03:01:15;;;;;;;31.33;27.70;;;;;;;;;;4954323;28;20196;-78
2021/09/11 03:03:40;;;;;;;33.17;29.10;;;;;;;;;;4960561;28;20182;-78
2021/09/11 03:06:06;;;;;;;31.97;27.77;;;;;;;;;;4960177;28;20205;-78
2021/09/11 03:08:31;;;;;;;29.57;26.37;;;;;;;;;;4958298;28;20293;-77
2021/09/11 03:10:56;;;;;;;32.97;28.30;;;;;;;;;;4957552;28;20174;-78
2021/09/11 03:13:22;;;;;;;31.13;27.13;;;;;;;;;;4957064;28;20182;-77
2021/09/11 03:15:47;;;;;;;32.83;27.43;;;;;;;;;;4959900;28;20186;-78
2021/09/11 03:18:12;;;;;;;34.17;30.47;;;;;;;;;;4956890;28;20220;-78
2021/09/11 03:20:37;;;;;;;33.43;29.00;;;;;;;;;;4958823;28;20705;-78
2021/09/11 03:23:03;;;;;;;34.73;29.87;;;;;;;;;;4957023;28;20686;-77
2021/09/11 03:25:29;;;;;;;32.63;28.57;;;;;;;;;;4957469;28;20210;-77
2021/09/11 03:27:54;;;;;;;31.00;27.47;;;;;;;;;;4956153;28;20541;-77
2021/09/11 03:30:19;;;;;;;29.57;25.80;;;;;;;;;;4957651;28;20186;-77
2021/09/11 03:32:44;;;;;;;33.53;27.17;;;;;;;;;;4958684;28;20178;-77
2021/09/11 03:35:10;;;;;;;31.70;26.20;;;;;;;;;;4959490;28;20555;-77
2021/09/11 03:37:35;;;;;;;29.23;25.93;;;;;;;;;;4958244;28;20621;-77
2021/09/11 03:40:00;;;;;;;30.27;26.43;;;;;;;;;;4962893;28;20199;-77
2021/09/11 03:42:25;;;;;;;31.07;26.80;;;;;;;;;;4957810;28;20191;-78
2021/09/11 03:44:51;;;;;;;37.30;30.40;;;;;;;;;;4958210;28;20698;-78
2021/09/11 03:47:16;;;;;;;33.40;28.80;;;;;;;;;;4956078;28;21193;-78
2021/09/11 03:49:42;;;;;;;37.57;31.40;;;;;;;;;;4957585;28;20174;-77
2021/09/11 03:52:07;;;;;;;32.73;28.90;;;;;;;;;;4958220;28;20182;-78
2021/09/11 03:54:32;;;;;;;37.60;32.10;;;;;;;;;;4960370;28;20183;-78
2021/09/11 03:56:57;;;;;;;32.97;29.20;;;;;;;;;;4957701;28;20279;-78
2021/09/11 03:59:23;;;;;;;40.37;32.80;;;;;;;;;;4957981;28;20194;-77
2021/09/11 04:01:48;;;;;;;42.37;33.60;;;;;;;;;;4956301;28;20190;-78
2021/09/11 04:04:13;;;;;;;34.83;29.93;;;;;;;;;;4963093;28;20225;-78
2021/09/11 04:06:38;;;;;;;36.57;30.13;;;;;;;;;;4967531;28;20552;-78
2021/09/11 04:09:04;;;;;;;35.17;29.83;;;;;;;;;;4962756;28;20198;-77
2021/09/11 04:11:29;;;;;;;31.87;28.33;;;;;;;;;;4961584;28;20277;-77
2021/09/11 04:13:55;;;;;;;37.80;30.53;;;;;;;;;;4961451;28;20179;-77
2021/09/11 04:16:20;;;;;;;34.87;29.67;;;;;;;;;;4964201;28;20190;-77
2021/09/11 04:18:45;;;;;;;35.57;29.73;;;;;;;;;;4964175;28;20238;-77
2021/09/11 04:21:10;;;;;;;38.20;30.53;;;;;;;;;;4962659;28;20179;-77
2021/09/11 04:23:35;;;;;;;35.87;29.50;;;;;;;;;;4963114;28;20197;-78
2021/09/11 04:26:01;;;;;;;34.33;29.93;;;;;;;;;;4963350;28;20655;-77
2021/09/11 04:28:26;;;;;;;38.40;32.60;;;;;;;;;;4962965;28;20242;-78
2021/09/11 04:30:51;;;;;;;40.23;31.67;;;;;;;;;;4959214;28;20184;-78
2021/09/11 04:33:16;;;;;;;36.90;30.73;;;;;;;;;;4960330;28;20174;-77
2021/09/11 04:35:42;;;;;;;39.13;32.33;;;;;;;;;;4961460;28;20302;-76
2021/09/11 04:38:07;;;;;;;38.03;32.13;;;;;;;;;;4959788;28;20750;-77
2021/09/11 04:40:32;;;;;;;35.30;30.77;;;;;;;;;;4961833;28;20183;-77
2021/09/11 04:42:58;;;;;;;40.30;33.07;;;;;;;;;;4960500;28;20190;-76
2021/09/11 04:45:23;;;;;;;40.70;32.70;;;;;;;;;;4959591;28;20278;-78
2021/09/11 04:47:49;;;;;;;38.03;31.37;;;;;;;;;;4961128;28;20655;-77
2021/09/11 04:50:14;;;;;;;39.40;32.73;;;;;;;;;;4961477;28;20265;-77
2021/09/11 04:52:39;;;;;;;37.07;31.97;;;;;;;;;;4962649;28;20215;-77
2021/09/11 04:55:07;;;;;;;39.50;31.47;;;;;;;;;;4961046;28;20537;-78
2021/09/11 04:57:33;;;;;;;38.07;31.70;;;;;;;;;;4961119;28;20606;-78
2021/09/11 04:59:58;;;;;;;37.90;30.67;;;;;;;;;;4961369;28;20450;-78
2021/09/11 05:02:23;;;;;;;37.33;31.37;;;;;;;;;;4962293;28;20203;-78
2021/09/11 05:04:48;;;;;;;41.90;34.67;;;;;;;;;;4961471;28;20273;-79
2021/09/11 05:07:13;;;;;;;41.70;31.90;;;;;;;;;;4961245;28;20215;-78
2021/09/11 05:09:39;;;;;;;40.77;31.73;;;;;;;;;;4959648;28;20187;-78
2021/09/11 05:12:05;;;;;;;40.00;31.60;;;;;;;;;;4960306;28;20187;-78
2021/09/11 05:14:31;;;;;;;37.40;31.40;;;;;;;;;;4959321;28;20670;-77
2021/09/11 05:16:56;;;;;;;39.30;30.73;;;;;;;;;;4961404;28;20429;-77
2021/09/11 05:19:22;;;;;;;40.03;32.23;;;;;;;;;;4960142;28;20182;-78
2021/09/11 05:21:47;;;;;;;40.10;32.73;;;;;;;;;;4962172;28;20175;-79
2021/09/11 05:24:19;;;;;;;35.00;30.70;;;;;;;;;;4961849;28;20738;-78
2021/09/11 05:26:44;;;;;;;37.60;29.67;;;;;;;;;;4960767;28;20195;-78
2021/09/11 05:29:10;;;;;;;39.40;31.00;;;;;;;;;;4961503;28;20453;-78
2021/09/11 05:31:35;;;;;;;35.93;29.10;;;;;;;;;;4961706;28;20178;-78
2021/09/11 05:34:00;;;;;;;39.70;31.90;;;;;;;;;;4960547;28;20195;-77
2021/09/11 05:36:26;;;;;;;37.90;30.33;;;;;;;;;;4960752;28;20183;-78
2021/09/11 05:38:51;;;;;;;37.37;29.10;;;;;;;;;;4960513;28;20234;-77
2021/09/11 05:41:16;;;;;;;29.70;25.90;;;;;;;;;;4959095;28;20306;-78
2021/09/11 05:43:41;;;;;;;35.63;27.97;;;;;;;;;;4961263;28;21129;-78
2021/09/11 05:46:07;;;;;;;29.33;24.00;;;;;;;;;;4962014;28;20232;-78
2021/09/11 05:48:34;;;;;;;28.93;24.87;;;;;;;;;;4960610;28;20198;-79
2021/09/11 05:51:00;;;;;;;30.10;24.20;;;;;;;;;;4965819;28;20188;-79
2021/09/11 05:53:25;;;;;;;30.97;25.00;;;;;;;;;;4957935;28;20854;-78
2021/09/11 05:55:50;;;;;;;29.03;24.60;;;;;;;;;;4958323;28;20206;-78
2021/09/11 05:58:15;;;;;;;26.10;22.43;;;;;;;;;;4959723;28;20199;-79
2021/09/11 06:00:41;;;;;;;25.47;20.30;;;;;;;;;;4959107;28;20183;-77
2021/09/11 06:03:06;;;;;;;27.13;20.27;;;;;;;;;;4958828;28;20554;-78
2021/09/11 06:05:32;;;;;;;26.77;22.80;;;;;;;;;;4959551;28;20226;-78
2021/09/11 06:07:57;;;;;;;25.40;22.10;;;;;;;;;;4961122;28;20667;-78
2021/09/11 06:10:22;;;;;;;24.60;19.30;;;;;;;;;;4962796;28;20323;-78
2021/09/11 06:12:47;;;;;;;22.10;17.60;;;;;;;;;;4962216;28;20183;-78
2021/09/11 06:15:13;;;;;;;22.67;17.03;;;;;;;;;;4960149;28;20171;-79
2021/09/11 06:17:38;;;;;;;17.50;14.73;;;;;;;;;;4959504;28;20338;-78
2021/09/11 06:20:05;;;;;;;23.80;16.13;;;;;;;;;;4962179;28;20213;-76
2021/09/11 06:22:30;;;;;;;24.20;16.30;;;;;;;;;;4961416;28;20199;-77
2021/09/11 06:24:55;;;;;;;20.80;15.23;;;;;;;;;;4961148;28;20523;-77
2021/09/11 06:27:20;;;;;;;27.43;16.07;;;;;;;;;;4961916;28;20221;-77
2021/09/11 06:29:45;;;;;;;17.60;15.20;;;;;;;;;;4962271;28;20209;-78
2021/09/11 06:32:11;;;;;;;22.70;14.87;;;;;;;;;;4961343;28;20229;-78
2021/09/11 06:34:36;;;;;;;19.63;15.73;;;;;;;;;;4959196;28;20198;-78
2021/09/11 06:37:01;;;;;;;23.10;15.00;;;;;;;;;;4958115;28;20186;-78
2021/09/11 06:39:27;;;;;;;22.27;16.00;;;;;;;;;;4960607;28;20564;-78
2021/09/11 06:41:52;;;;;;;20.20;16.87;;;;;;;;;;4961562;28;20718;-78
2021/09/11 06:44:17;;;;;;;22.90;16.83;;;;;;;;;;4958367;28;20202;-80
2021/09/11 06:46:43;;;;;;;20.97;16.53;;;;;;;;;;4961857;28;20210;-78
2021/09/11 06:49:08;;;;;;;18.13;15.50;;;;;;;;;;4957232;28;20250;-79
2021/09/11 06:51:33;;;;;;;22.00;16.40;;;;;;;;;;4958028;28;20327;-78
2021/09/11 06:53:59;;;;;;;21.50;17.13;;;;;;;;;;4959188;28;20222;-78
2021/09/11 06:56:24;;;;;;;21.37;17.10;;;;;;;;;;4958778;28;20195;-79
2021/09/11 06:58:49;;;;;;;25.43;17.73;;;;;;;;;;4958881;28;20207;-79
2021/09/11 07:01:14;;;;;;;24.97;17.80;;;;;;;;;;4958026;28;20201;-80
2021/09/11 07:03:40;;;;;;;25.07;18.37;;;;;;;;;;4957115;28;20186;-77
2021/09/11 07:06:05;;;;;;;26.77;18.77;;;;;;;;;;4957074;28;20207;-77
2021/09/11 07:08:31;;;;;;;23.43;18.70;;;;;;;;;;4960066;28;20205;-77
2021/09/11 07:10:56;;;;;;;26.90;18.80;;;;;;;;;;4956341;28;20210;-77
2021/09/11 07:13:21;;;;;;;24.53;19.10;;;;;;;;;;4959029;28;20178;-78
2021/09/11 07:15:47;;;;;;;26.40;19.33;;;;;;;;;;4957626;28;20183;-78
2021/09/11 07:18:12;;;;;;;26.10;19.77;;;;;;;;;;4956175;28;20238;-78
2021/09/11 07:20:37;;;;;;;28.87;21.77;;;;;;;;;;4956530;28;20866;-78
2021/09/11 07:23:03;;;;;;;26.67;20.83;;;;;;;;;;4958029;28;20230;-77
2021/09/11 07:25:28;;;;;;;21.30;18.80;;;;;;;;;;4958196;28;20187;-78
2021/09/11 07:27:53;;;;;;;27.57;21.10;;;;;;;;;;4957674;28;20253;-77
2021/09/11 07:30:19;;;;;;;28.10;21.10;;;;;;;;;;4957345;28;20183;-78
2021/09/11 07:32:44;;;;;;;29.63;24.00;;;;;;;;;;4958221;28;20179;-77
2021/09/11 07:35:09;;;;;;;25.40;21.00;;;;;;;;;;4961325;28;20291;-77
2021/09/11 07:37:34;;;;;;;24.10;21.53;;;;;;;;;;4962742;28;20199;-77
2021/09/11 07:40:00;;;;;;;30.67;22.73;;;;;;;;;;4959869;28;20198;-78
2021/09/11 07:42:25;;;;;;;31.23;24.90;;;;;;;;;;4963128;28;20181;-78
2021/09/11 07:44:50;;;;;;;27.60;22.93;;;;;;;;;;4964478;28;20334;-77
2021/09/11 07:47:17;;;;;;;36.20;24.33;;;;;;;;;;4966104;28;20214;-78
2021/09/11 07:49:42;;;;;;;33.53;25.27;;;;;;;;;;4964522;28;20225;-77
2021/09/11 07:52:08;;;;;;;34.70;25.53;;;;;;;;;;4962338;28;20938;-77
2021/09/11 07:54:33;;;;;;;37.03;26.53;;;;;;;;;;4963070;28;20246;-77
2021/09/11 07:56:58;;;;;;;36.03;26.30;;;;;;;;;;4962413;28;20190;-78
2021/09/11 07:59:23;;;;;;;30.43;25.80;;;;;;;;;;4964888;28;20213;-78
2021/09/11 08:01:49;;;;;;;28.57;24.93;;;;;;;;;;4962944;28;20191;-78
2021/09/11 08:04:14;;;;;;;36.33;27.37;;;;;;;;;;4962655;28;20183;-76
2021/09/11 08:06:39;;;;;;;32.57;26.00;;;;;;;;;;4964799;28;20207;-76
2021/09/11 08:09:04;;;;;;;28.17;25.10;;;;;;;;;;4961885;28;20199;-77
2021/09/11 08:11:30;;;;;;;31.77;26.50;;;;;;;;;;4961594;28;20179;-77
2021/09/11 08:13:55;;;;;;;37.90;27.07;;;;;;;;;;4963197;28;20254;-77
2021/09/11 08:16:20;;;;;;;33.50;25.00;;;;;;;;;;4959791;28;21071;-76
2021/09/11 08:18:46;;;;;;;36.23;25.90;;;;;;;;;;4961453;28;20198;-76
2021/09/11 08:21:11;;;;;;;32.60;26.23;;;;;;;;;;4961632;28;20207;-76
2021/09/11 08:23:36;;;;;;;31.17;24.83;;;;;;;;;;4963137;28;20202;-78
2021/09/11 08:26:04;;;;;;;30.83;26.43;;;;;;;;;;4962192;28;20202;-77
2021/09/11 08:28:29;;;;;;;31.30;22.80;;;;;;;;;;4959912;28;20314;-76
2021/09/11 08:30:54;;;;;;;31.50;25.40;;;;;;;;;;4958570;28;20486;-77
2021/09/11 08:33:19;;;;;;;35.20;26.87;;;;;;;;;;4961526;28;20273;-78
2021/09/11 08:35:45;;;;;;;29.50;23.73;;;;;;;;;;4957459;28;20663;-78
2021/09/11 08:38:10;;;;;;;26.83;24.00;;;;;;;;;;4956496;28;20199;-78
2021/09/11 08:40:36;;;;;;;29.80;24.43;;;;;;;;;;4956204;28;20209;-77
2021/09/11 08:43:02;;;;;;;30.07;24.53;;;;;;;;;;4960819;28;20221;-79
2021/09/11 08:45:30;;;;;;;28.60;24.13;;;;;;;;;;4962326;28;20797;-78
2021/09/11 08:47:55;;;;;;;29.17;23.97;;;;;;;;;;4959451;28;20489;-78
2021/09/11 08:50:20;;;;;;;27.70;23.50;;;;;;;;;;4959390;28;20525;-77
2021/09/11 08:52:47;;;;;;;28.73;24.57;;;;;;;;;;4956335;28;20600;-78
2021/09/11 08:55:13;;;;;;;28.63;23.70;;;;;;;;;;4958450;28;20190;-78
2021/09/11 08:57:38;;;;;;;30.13;25.40;;;;;;;;;;4960650;28;20544;-78
2021/09/11 09:00:06;;;;;;;25.80;22.97;;;;;;;;;;4962043;28;20426;-79
2021/09/11 09:02:31;;;;;;;31.87;25.10;;;;;;;;;;4960121;28;20186;-79
2021/09/11 09:04:58;;;;;;;33.00;26.60;;;;;;;;;;4960842;28;20570;-78
2021/09/11 09:07:34;;;;;;;31.77;27.17;;;;;;;;;;4962348;28;20210;-78
2021/09/11 09:10:00;;;;;;;35.13;26.30;;;;;;;;;;4963025;28;20938;-78
2021/09/11 09:12:29;;;;;;;34.70;28.00;;;;;;;;;;4963865;28;20509;-77
2021/09/11 09:14:59;;;;;;;33.97;27.03;;;;;;;;;;4955387;28;20446;-77
2021/09/11 09:17:45;;;;;;;34.13;29.60;;;;;;;;;;4960149;28;20489;-79
2021/09/11 09:20:10;;;;;;;29.67;26.17;;;;;;;;;;4962882;28;20443;-80
2021/09/11 09:22:35;;;;;;;30.43;25.93;;;;;;;;;;4962345;28;20446;-79
2021/09/11 09:25:00;;;;;;;30.60;27.30;;;;;;;;;;4960225;28;20186;-78
2021/09/11 09:27:26;;;;;;;32.77;28.60;;;;;;;;;;4960181;28;20635;-78
2021/09/11 09:29:59;;;;;;;36.13;27.17;;;;;;;;;;4958464;28;20183;-77
2021/09/11 09:32:35;;;;;;;32.50;27.23;;;;;;;;;;4962546;28;20545;-78
2021/09/11 09:35:00;;;;;;;33.80;27.50;;;;;;;;;;4965382;28;20438;-79
2021/09/11 09:37:25;;;;;;;34.73;27.03;;;;;;;;;;4962024;28;20468;-79
2021/09/11 09:39:52;;;;;;;30.10;26.00;;;;;;;;;;4960042;28;20269;-78
2021/09/11 09:42:18;;;;;;;32.43;27.10;;;;;;;;;;4958726;28;20191;-79
2021/09/11 09:44:45;;;;;;;30.00;24.30;;;;;;;;;;4960243;28;20808;-79
2021/09/11 09:47:11;;;;;;;24.67;22.17;;;;;;;;;;4958688;28;20249;-78
2021/09/11 09:49:37;;;;;;;27.47;23.43;;;;;;;;;;4959620;28;20470;-79
2021/09/11 09:52:02;;;;;;;30.30;24.60;;;;;;;;;;4959119;28;20488;-77
2021/09/11 09:54:28;;;;;;;30.20;24.50;;;;;;;;;;4957708;28;20183;-78
2021/09/11 09:56:54;;;;;;;28.60;22.93;;;;;;;;;;4958734;28;20198;-76
2021/09/11 09:59:19;;;;;;;27.70;24.73;;;;;;;;;;4959816;28;20197;-77
2021/09/11 10:01:49;;;;;;;28.43;23.70;;;;;;;;;;4959700;28;20434;-77
2021/09/11 10:04:16;;;;;;;25.80;22.67;;;;;;;;;;4959364;28;20601;-77
2021/09/11 10:06:42;;;;;;;30.13;23.47;;;;;;;;;;4959855;28;20490;-78
2021/09/11 10:09:10;;;;;;;31.90;22.30;;;;;;;;;;4960355;28;20561;-80
2021/09/11 10:11:39;;;;;;;26.07;20.83;;;;;;;;;;4960405;28;20481;-80
2021/09/11 10:14:14;;;;;;;28.53;24.17;;;;;;;;;;4961524;28;20495;-81
2021/09/11 10:16:43;;;;;;;22.90;20.40;;;;;;;;;;4962389;28;20499;-79
2021/09/11 10:19:15;;;;;;;26.43;23.63;;;;;;;;;;4959938;28;20449;-79
2021/09/11 10:21:40;;;;;;;26.27;23.57;;;;;;;;;;4961296;28;20438;-79
2021/09/11 10:24:15;;;;;;;29.63;24.00;;;;;;;;;;4961296;28;20541;-78
2021/09/11 10:26:46;;;;;;;24.70;19.67;;;;;;;;;;4967652;28;20642;-77
2021/09/11 10:29:31;;;;;;;23.83;21.33;;;;;;;;;;4959375;28;20862;-78
2021/09/11 10:32:00;;;;;;;27.37;22.87;;;;;;;;;;4961070;28;20467;-78
2021/09/11 10:34:52;;;;;;;28.20;24.63;;;;;;;;;;4962691;28;20437;-78
2021/09/11 10:37:28;;;;;;;23.77;21.23;;;;;;;;;;4962344;28;20457;-77
2021/09/11 10:40:26;;;;;;;23.13;19.83;;;;;;;;;;4961306;28;21069;-78
2021/09/11 10:43:09;;;;;;;27.07;21.57;;;;;;;;;;4952880;28;20451;-79
2021/09/11 10:45:41;;;;;;;24.37;21.47;;;;;;;;;;4958467;28;20934;-78
2021/09/11 10:48:26;;;;;;;24.97;22.27;;;;;;;;;;4959307;28;20458;-78
2021/09/11 10:50:51;;;;;;;30.30;22.70;;;;;;;;;;4958958;28;20971;-78
2021/09/11 10:53:20;;;;;;;25.37;22.27;;;;;;;;;;4959446;28;20445;-78
2021/09/11 10:55:45;;;;;;;28.90;23.57;;;;;;;;;;4958942;28;20183;-79
2021/09/11 10:58:23;;;;;;;29.77;22.00;;;;;;;;;;4964594;28;20455;-78
2021/09/11 11:00:57;;;;;;;25.03;22.33;;;;;;;;;;4958079;28;20249;-79
2021/09/11 11:03:23;;;;;;;30.73;24.30;;;;;;;;;;4960969;28;20520;-79
2021/09/11 11:06:03;;;;;;;25.90;21.90;;;;;;;;;;4955930;28;20526;-79
2021/09/11 11:08:29;;;;;;;27.60;23.33;;;;;;;;;;4960211;28;20198;-77
2021/09/11 11:10:54;;;;;;;23.93;21.37;;;;;;;;;;4961994;28;20852;-78
2021/09/11 11:13:21;;;;;;;23.63;20.00;;;;;;;;;;4965261;28;20444;-78
2021/09/11 11:15:53;;;;;;;26.97;22.90;;;;;;;;;;4963227;28;20313;-77
2021/09/11 11:18:18;;;;;;;26.63;21.17;;;;;;;;;;4964787;28;20472;-78
2021/09/11 11:20:43;;;;;;;27.63;24.63;;;;;;;;;;4963005;28;20803;-79
2021/09/11 11:23:09;;;;;;;28.77;22.60;;;;;;;;;;4964767;28;20199;-77
2021/09/11 11:25:37;;;;;;;25.47;22.77;;;;;;;;;;4962657;28;20261;-78
2021/09/11 11:28:04;;;;;;;30.20;26.87;;;;;;;;;;4961160;28;20587;-77
2021/09/11 11:30:29;;;;;;;30.07;24.43;;;;;;;;;;4961603;28;20790;-78
2021/09/11 11:32:57;;;;;;;26.83;24.20;;;;;;;;;;4959323;28;20441;-78
2021/09/11 11:35:22;;;;;;;27.97;24.90;;;;;;;;;;4964799;28;20663;-78
2021/09/11 11:37:48;;;;;;;30.10;25.80;;;;;;;;;;4962445;28;20462;-77
2021/09/11 11:40:14;;;;;;;31.90;26.67;;;;;;;;;;4960066;28;21113;-77
2021/09/11 11:42:41;;;;;;;31.30;26.20;;;;;;;;;;4961730;28;20183;-78
2021/09/11 11:45:08;;;;;;;30.47;25.53;;;;;;;;;;4964226;28;20437;-78
2021/09/11 11:47:46;;;;;;;31.37;26.43;;;;;;;;;;4961932;28;20476;-78
2021/09/11 11:50:31;;;;;;;32.60;23.83;;;;;;;;;;4963266;28;20429;-78
2021/09/11 11:52:59;;;;;;;31.50;25.67;;;;;;;;;;4963666;28;20421;-77
2021/09/11 11:55:25;;;;;;;29.60;26.60;;;;;;;;;;4961746;28;20434;-78
2021/09/11 11:58:06;;;;;;;30.57;26.20;;;;;;;;;;4954583;28;21066;-78
2021/09/11 12:00:51;;;;;;;27.73;24.60;;;;;;;;;;4965160;28;20434;-78
2021/09/11 12:03:35;;;;;;;40.03;26.80;;;;;;;;;;4962891;28;20501;-79
2021/09/11 12:06:01;;;;;;;29.07;25.80;;;;;;;;;;4963130;28;20560;-78
2021/09/11 12:08:27;;;;;;;30.30;25.40;;;;;;;;;;4963750;28;20812;-78
2021/09/11 12:10:53;;;;;;;31.93;25.77;;;;;;;;;;4962827;28;20439;-79
2021/09/11 12:13:19;;;;;;;31.63;25.13;;;;;;;;;;4964110;28;20186;-78
2021/09/11 12:15:44;;;;;;;33.13;27.33;;;;;;;;;;4960467;28;20433;-78
2021/09/11 12:18:14;;;;;;;25.70;22.60;;;;;;;;;;4959047;28;20459;-78
2021/09/11 12:20:46;;;;;;;34.07;26.30;;;;;;;;;;4960112;28;20178;-78
2021/09/11 12:23:13;;;;;;;24.27;21.67;;;;;;;;;;4963032;28;20532;-78
2021/09/11 12:25:45;;;;;;;29.33;25.27;;;;;;;;;;4964407;28;20926;-78
2021/09/11 12:28:29;;;;;;;24.43;21.90;;;;;;;;;;4963244;28;21053;-76
2021/09/11 12:30:55;;;;;;;23.30;20.80;;;;;;;;;;4961590;28;20422;-78
2021/09/11 12:33:23;;;;;;;25.80;22.90;;;;;;;;;;4963329;28;20494;-78
2021/09/11 12:35:48;;;;;;;24.90;21.60;;;;;;;;;;4959057;28;20172;-77
2021/09/11 12:38:13;;;;;;;28.40;22.43;;;;;;;;;;4960374;28;20456;-77
2021/09/11 12:40:38;;;;;;;24.57;21.00;;;;;;;;;;4963311;28;20179;-77
2021/09/11 12:43:04;;;;;;;21.97;19.43;;;;;;;;;;4962884;28;20171;-76
2021/09/11 12:45:33;;;;;;;25.23;20.53;;;;;;;;;;4967136;28;20186;-77
2021/09/11 12:47:58;;;;;;;23.17;18.80;;;;;;;;;;4962391;28;20311;-77
2021/09/11 12:50:24;;;;;;;24.07;19.93;;;;;;;;;;4963771;28;20521;-79
2021/09/11 12:52:49;;;;;;;17.23;15.20;;;;;;;;;;4963358;28;20210;-78
2021/09/11 12:55:14;;;;;;;24.30;19.60;;;;;;;;;;4964441;28;20237;-77
2021/09/11 12:57:39;;;;;;;17.80;16.10;;;;;;;;;;4961503;28;20210;-79
2021/09/11 13:00:05;;;;;;;20.40;17.10;;;;;;;;;;4964479;28;20253;-78
2021/09/11 13:02:30;;;;;;;20.63;16.90;;;;;;;;;;4962056;28;20183;-78
2021/09/11 13:04:56;;;;;;;18.27;16.33;;;;;;;;;;4969819;28;20193;-78
2021/09/11 13:07:21;;;;;;;15.57;13.97;;;;;;;;;;4964984;28;20210;-78
2021/09/11 13:09:47;;;;;;;17.70;14.40;;;;;;;;;;4963660;28;20193;-78
2021/09/11 13:12:12;;;;;;;16.60;14.87;;;;;;;;;;4960606;28;20179;-79
2021/09/11 13:14:37;;;;;;;20.67;16.60;;;;;;;;;;4963010;28;20186;-78
2021/09/11 13:17:04;;;;;;;17.93;16.13;;;;;;;;;;4962661;28;20221;-79
2021/09/11 13:19:29;;;;;;;17.03;14.03;;;;;;;;;;4961998;28;20605;-79
2021/09/11 13:21:55;;;;;;;20.23;16.80;;;;;;;;;;4961837;28;20441;-79
2021/09/11 13:24:20;;;;;;;19.13;15.47;;;;;;;;;;4963855;28;20640;-79
2021/09/11 13:26:45;;;;;;;16.90;15.10;;;;;;;;;;4960678;28;20195;-77
2021/09/11 13:29:10;;;;;;;16.73;13.67;;;;;;;;;;4963402;28;20195;-78
2021/09/11 13:31:36;;;;;;;18.80;14.90;;;;;;;;;;4963081;28;20666;-78
2021/09/11 13:34:04;;;;;;;20.73;15.00;;;;;;;;;;4964737;28;20182;-79
2021/09/11 13:36:29;;;;;;;16.83;13.57;;;;;;;;;;4964379;28;20179;-79
2021/09/11 13:38:55;;;;;;;18.50;14.90;;;;;;;;;;4961471;28;20876;-79
2021/09/11 13:41:21;;;;;;;17.93;14.90;;;;;;;;;;4956637;28;20190;-78
2021/09/11 13:43:46;;;;;;;15.83;12.80;;;;;;;;;;4959942;28;20179;-77
2021/09/11 13:46:13;;;;;;;13.43;11.93;;;;;;;;;;4960936;28;20874;-77
2021/09/11 13:48:39;;;;;;;15.80;13.20;;;;;;;;;;4961839;28;20208;-78
2021/09/11 13:51:04;;;;;;;18.40;15.80;;;;;;;;;;4961838;28;20429;-79
2021/09/11 13:53:30;;;;;;;18.30;13.57;;;;;;;;;;4959462;28;20210;-77
2021/09/11 13:55:55;;;;;;;18.80;13.80;;;;;;;;;;4961714;28;20280;-77
2021/09/11 13:58:20;;;;;;;16.13;14.43;;;;;;;;;;4959303;28;20198;-76
2021/09/11 14:00:45;;;;;;;14.03;12.47;;;;;;;;;;4961187;28;20179;-77
2021/09/11 14:03:11;;;;;;;20.30;16.23;;;;;;;;;;4961148;28;20676;-76
2021/09/11 14:05:37;;;;;;;21.20;16.47;;;;;;;;;;4960438;28;20186;-77
2021/09/11 14:08:02;;;;;;;15.63;13.90;;;;;;;;;;4958618;28;20209;-77
2021/09/11 14:10:27;;;;;;;19.90;15.37;;;;;;;;;;4960886;28;20441;-77
2021/09/11 14:12:53;;;;;;;18.73;14.97;;;;;;;;;;4959859;28;20201;-77